sensor_id;sensor_type;location;lat;lon;timestamp;P1;durP1;ratioP1;P2;durP2;ratioP2
29940;SDS011;16801;53.562;10.038;2022-09-09T00:02:59;12.97;;;9.50;;
29940;SDS011;16801;53.562;10.038;2022-09-09T00:06:30;16.87;;;10.57;;
29940;SDS011;16801;53.562;10.038;2022-09-09T00:09:58;11.67;;;9.47;;
29940;SDS011;16801;53.562;10.038;2022-09-09T00:13:30;14.37;;;11.20;;
29940;SDS011;16801;53.562;10.038;2022-09-09T00:16:58;16.43;;;10.23;;
29940;SDS011;16801;53.562;10.038;2022-09-09T00:20:25;15.43;;;11.33;;
29940;SDS011;16801;53.562;10.038;2022-09-09T00:23:53;14.33;;;10.37;;
29940;SDS011;16801;53.562;10.038;2022-09-09T00:27:18;18.27;;;12.17;;
29940;SDS011;16801;53.562;10.038;2022-09-09T00:30:45;15.30;;;10.97;;
29940;SDS011;16801;53.562;10.038;2022-09-09T00:34:09;19.37;;;12.27;;
29940;SDS011;16801;53.562;10.038;2022-09-09T00:37:32;19.87;;;11.63;;
29940;SDS011;16801;53.562;10.038;2022-09-09T00:40:57;15.40;;;11.93;;
29940;SDS011;16801;53.562;10.038;2022-09-09T00:44:27;19.63;;;10.37;;
29940;SDS011;16801;53.562;10.038;2022-09-09T00:47:54;18.53;;;10.07;;
29940;SDS011;16801;53.562;10.038;2022-09-09T00:51:17;11.83;;;8.93;;
29940;SDS011;16801;53.562;10.038;2022-09-09T00:54:52;21.17;;;9.57;;
29940;SDS011;16801;53.562;10.038;2022-09-09T00:58:23;12.93;;;7.67;;
29940;SDS011;16801;53.562;10.038;2022-09-09T01:01:47;12.17;;;8.00;;
29940;SDS011;16801;53.562;10.038;2022-09-09T01:05:10;11.47;;;8.50;;
29940;SDS011;16801;53.562;10.038;2022-09-09T01:08:42;11.07;;;8.50;;
29940;SDS011;16801;53.562;10.038;2022-09-09T01:12:15;11.07;;;9.40;;
29940;SDS011;16801;53.562;10.038;2022-09-09T01:15:40;9.27;;;7.03;;
29940;SDS011;16801;53.562;10.038;2022-09-09T01:19:04;13.03;;;8.43;;
29940;SDS011;16801;53.562;10.038;2022-09-09T01:22:36;8.67;;;7.77;;
29940;SDS011;16801;53.562;10.038;2022-09-09T01:26:11;10.77;;;8.27;;
29940;SDS011;16801;53.562;10.038;2022-09-09T01:29:36;11.67;;;8.13;;
29940;SDS011;16801;53.562;10.038;2022-09-09T01:32:58;10.77;;;7.07;;
29940;SDS011;16801;53.562;10.038;2022-09-09T01:36:29;12.97;;;8.50;;
29940;SDS011;16801;53.562;10.038;2022-09-09T01:39:55;11.07;;;7.63;;
29940;SDS011;16801;53.562;10.038;2022-09-09T01:43:17;10.60;;;7.63;;
29940;SDS011;16801;53.562;10.038;2022-09-09T01:46:39;13.00;;;8.17;;
29940;SDS011;16801;53.562;10.038;2022-09-09T01:50:07;11.43;;;9.00;;
29940;SDS011;16801;53.562;10.038;2022-09-09T01:53:33;13.30;;;8.50;;
29940;SDS011;16801;53.562;10.038;2022-09-09T01:56:56;13.13;;;8.17;;
29940;SDS011;16801;53.562;10.038;2022-09-09T02:00:28;11.93;;;8.53;;
29940;SDS011;16801;53.562;10.038;2022-09-09T02:03:53;12.20;;;8.27;;
29940;SDS011;16801;53.562;10.038;2022-09-09T02:07:21;9.73;;;8.00;;
29940;SDS011;16801;53.562;10.038;2022-09-09T02:11:02;13.63;;;9.47;;
29940;SDS011;16801;53.562;10.038;2022-09-09T02:14:35;10.97;;;8.40;;
29940;SDS011;16801;53.562;10.038;2022-09-09T02:18:01;11.73;;;7.33;;
29940;SDS011;16801;53.562;10.038;2022-09-09T02:21:28;12.60;;;9.07;;
29940;SDS011;16801;53.562;10.038;2022-09-09T02:24:50;12.27;;;8.60;;
29940;SDS011;16801;53.562;10.038;2022-09-09T02:28:19;12.23;;;8.50;;
29940;SDS011;16801;53.562;10.038;2022-09-09T02:31:43;14.50;;;8.20;;
29940;SDS011;16801;53.562;10.038;2022-09-09T02:35:14;11.53;;;9.37;;
29940;SDS011;16801;53.562;10.038;2022-09-09T02:38:39;10.30;;;7.43;;
29940;SDS011;16801;53.562;10.038;2022-09-09T02:42:08;12.07;;;7.90;;
29940;SDS011;16801;53.562;10.038;2022-09-09T02:45:31;7.77;;;6.67;;
29940;SDS011;16801;53.562;10.038;2022-09-09T02:49:05;12.27;;;7.80;;
29940;SDS011;16801;53.562;10.038;2022-09-09T02:52:35;13.20;;;8.40;;
29940;SDS011;16801;53.562;10.038;2022-09-09T02:56:08;10.90;;;6.50;;
29940;SDS011;16801;53.562;10.038;2022-09-09T02:59:36;12.57;;;6.70;;
29940;SDS011;16801;53.562;10.038;2022-09-09T03:02:58;10.43;;;7.20;;
29940;SDS011;16801;53.562;10.038;2022-09-09T03:06:19;7.30;;;6.57;;
29940;SDS011;16801;53.562;10.038;2022-09-09T03:09:48;7.00;;;6.30;;
29940;SDS011;16801;53.562;10.038;2022-09-09T03:13:09;11.63;;;7.40;;
29940;SDS011;16801;53.562;10.038;2022-09-09T03:16:32;10.87;;;7.70;;
29940;SDS011;16801;53.562;10.038;2022-09-09T03:19:54;11.30;;;7.63;;
29940;SDS011;16801;53.562;10.038;2022-09-09T03:23:17;10.00;;;6.83;;
29940;SDS011;16801;53.562;10.038;2022-09-09T03:26:40;8.20;;;4.97;;
29940;SDS011;16801;53.562;10.038;2022-09-09T03:30:06;6.70;;;5.97;;
29940;SDS011;16801;53.562;10.038;2022-09-09T03:33:28;10.80;;;5.47;;
29940;SDS011;16801;53.562;10.038;2022-09-09T03:36:49;6.93;;;5.73;;
29940;SDS011;16801;53.562;10.038;2022-09-09T03:40:12;10.63;;;8.00;;
29940;SDS011;16801;53.562;10.038;2022-09-09T03:43:37;7.93;;;6.20;;
29940;SDS011;16801;53.562;10.038;2022-09-09T03:46:58;6.57;;;5.27;;
29940;SDS011;16801;53.562;10.038;2022-09-09T03:50:20;9.10;;;5.83;;
29940;SDS011;16801;53.562;10.038;2022-09-09T03:53:41;8.63;;;5.17;;
29940;SDS011;16801;53.562;10.038;2022-09-09T03:57:03;8.47;;;6.17;;
29940;SDS011;16801;53.562;10.038;2022-09-09T04:00:26;6.30;;;4.83;;
29940;SDS011;16801;53.562;10.038;2022-09-09T04:03:48;6.70;;;6.03;;
29940;SDS011;16801;53.562;10.038;2022-09-09T04:07:09;7.63;;;5.27;;
29940;SDS011;16801;53.562;10.038;2022-09-09T04:10:33;8.10;;;4.63;;
29940;SDS011;16801;53.562;10.038;2022-09-09T04:13:55;7.03;;;6.33;;
29940;SDS011;16801;53.562;10.038;2022-09-09T04:17:18;5.63;;;4.57;;
29940;SDS011;16801;53.562;10.038;2022-09-09T04:20:39;8.87;;;6.20;;
29940;SDS011;16801;53.562;10.038;2022-09-09T04:24:00;5.63;;;4.33;;
29940;SDS011;16801;53.562;10.038;2022-09-09T04:27:22;5.83;;;5.03;;
29940;SDS011;16801;53.562;10.038;2022-09-09T04:30:43;8.43;;;6.13;;
29940;SDS011;16801;53.562;10.038;2022-09-09T04:34:06;6.87;;;5.20;;
29940;SDS011;16801;53.562;10.038;2022-09-09T04:37:29;6.30;;;4.70;;
29940;SDS011;16801;53.562;10.038;2022-09-09T04:40:50;5.33;;;4.63;;
29940;SDS011;16801;53.562;10.038;2022-09-09T04:44:14;6.30;;;5.27;;
29940;SDS011;16801;53.562;10.038;2022-09-09T04:47:35;5.97;;;5.37;;
29940;SDS011;16801;53.562;10.038;2022-09-09T04:50:58;7.87;;;5.57;;
29940;SDS011;16801;53.562;10.038;2022-09-09T04:54:21;6.20;;;4.43;;
29940;SDS011;16801;53.562;10.038;2022-09-09T04:57:43;6.37;;;4.80;;
29940;SDS011;16801;53.562;10.038;2022-09-09T05:01:06;5.80;;;5.13;;
29940;SDS011;16801;53.562;10.038;2022-09-09T05:04:28;5.40;;;3.97;;
29940;SDS011;16801;53.562;10.038;2022-09-09T05:07:51;6.00;;;4.80;;
29940;SDS011;16801;53.562;10.038;2022-09-09T05:11:13;5.40;;;4.47;;
29940;SDS011;16801;53.562;10.038;2022-09-09T05:14:38;5.13;;;4.27;;
29940;SDS011;16801;53.562;10.038;2022-09-09T05:18:00;6.07;;;4.53;;
29940;SDS011;16801;53.562;10.038;2022-09-09T05:21:24;7.70;;;4.67;;
29940;SDS011;16801;53.562;10.038;2022-09-09T05:24:47;6.53;;;4.70;;
29940;SDS011;16801;53.562;10.038;2022-09-09T05:28:11;5.37;;;4.87;;
29940;SDS011;16801;53.562;10.038;2022-09-09T05:31:32;5.27;;;4.60;;
29940;SDS011;16801;53.562;10.038;2022-09-09T05:34:56;7.00;;;5.00;;
29940;SDS011;16801;53.562;10.038;2022-09-09T05:38:17;5.83;;;4.73;;
29940;SDS011;16801;53.562;10.038;2022-09-09T05:41:41;4.87;;;3.93;;
29940;SDS011;16801;53.562;10.038;2022-09-09T05:45:02;4.73;;;3.83;;
29940;SDS011;16801;53.562;10.038;2022-09-09T05:48:24;8.27;;;4.23;;
29940;SDS011;16801;53.562;10.038;2022-09-09T05:51:44;5.97;;;4.67;;
29940;SDS011;16801;53.562;10.038;2022-09-09T05:55:08;7.07;;;5.43;;
29940;SDS011;16801;53.562;10.038;2022-09-09T05:58:31;5.20;;;3.80;;
29940;SDS011;16801;53.562;10.038;2022-09-09T06:01:53;6.00;;;4.00;;
29940;SDS011;16801;53.562;10.038;2022-09-09T06:05:19;5.27;;;4.77;;
29940;SDS011;16801;53.562;10.038;2022-09-09T06:08:43;8.63;;;4.27;;
29940;SDS011;16801;53.562;10.038;2022-09-09T06:12:07;4.20;;;3.80;;
29940;SDS011;16801;53.562;10.038;2022-09-09T06:15:30;4.50;;;3.33;;
29940;SDS011;16801;53.562;10.038;2022-09-09T06:18:52;4.47;;;3.00;;
29940;SDS011;16801;53.562;10.038;2022-09-09T06:22:15;4.30;;;3.90;;
29940;SDS011;16801;53.562;10.038;2022-09-09T06:25:36;4.33;;;2.63;;
29940;SDS011;16801;53.562;10.038;2022-09-09T06:29:02;3.87;;;3.47;;
29940;SDS011;16801;53.562;10.038;2022-09-09T06:32:25;4.47;;;3.40;;
29940;SDS011;16801;53.562;10.038;2022-09-09T06:35:50;3.40;;;3.07;;
29940;SDS011;16801;53.562;10.038;2022-09-09T06:39:13;4.03;;;3.13;;
29940;SDS011;16801;53.562;10.038;2022-09-09T06:42:35;4.23;;;3.27;;
29940;SDS011;16801;53.562;10.038;2022-09-09T06:46:20;2.97;;;2.30;;
29940;SDS011;16801;53.562;10.038;2022-09-09T06:49:45;3.77;;;3.10;;
29940;SDS011;16801;53.562;10.038;2022-09-09T06:53:06;3.57;;;3.03;;
29940;SDS011;16801;53.562;10.038;2022-09-09T06:56:27;3.27;;;2.97;;
29940;SDS011;16801;53.562;10.038;2022-09-09T06:59:51;3.40;;;2.40;;
29940;SDS011;16801;53.562;10.038;2022-09-09T07:03:13;8.17;;;5.10;;
29940;SDS011;16801;53.562;10.038;2022-09-09T07:06:37;3.23;;;2.93;;
29940;SDS011;16801;53.562;10.038;2022-09-09T07:10:00;3.40;;;2.40;;
29940;SDS011;16801;53.562;10.038;2022-09-09T07:13:23;3.13;;;2.47;;
29940;SDS011;16801;53.562;10.038;2022-09-09T07:16:46;3.27;;;2.90;;
29940;SDS011;16801;53.562;10.038;2022-09-09T07:20:10;3.13;;;2.83;;
29940;SDS011;16801;53.562;10.038;2022-09-09T07:23:33;2.10;;;1.90;;
29940;SDS011;16801;53.562;10.038;2022-09-09T07:26:55;5.03;;;1.97;;
29940;SDS011;16801;53.562;10.038;2022-09-09T07:30:16;1.60;;;1.50;;
29940;SDS011;16801;53.562;10.038;2022-09-09T07:33:39;2.10;;;1.90;;
29940;SDS011;16801;53.562;10.038;2022-09-09T07:37:01;2.10;;;1.90;;
29940;SDS011;16801;53.562;10.038;2022-09-09T07:40:24;4.33;;;2.33;;
29940;SDS011;16801;53.562;10.038;2022-09-09T07:43:46;2.07;;;1.87;;
29940;SDS011;16801;53.562;10.038;2022-09-09T07:47:09;4.20;;;2.63;;
29940;SDS011;16801;53.562;10.038;2022-09-09T07:50:37;2.97;;;1.97;;
29940;SDS011;16801;53.562;10.038;2022-09-09T07:53:59;4.63;;;2.10;;
29940;SDS011;16801;53.562;10.038;2022-09-09T07:57:24;3.53;;;2.50;;
29940;SDS011;16801;53.562;10.038;2022-09-09T08:00:47;4.70;;;2.28;;
29940;SDS011;16801;53.562;10.038;2022-09-09T08:04:10;2.60;;;2.40;;
29940;SDS011;16801;53.562;10.038;2022-09-09T08:07:36;2.70;;;2.47;;
29940;SDS011;16801;53.562;10.038;2022-09-09T08:11:06;4.32;;;1.98;;
29940;SDS011;16801;53.562;10.038;2022-09-09T08:14:30;2.38;;;1.80;;
29940;SDS011;16801;53.562;10.038;2022-09-09T08:17:51;2.03;;;1.55;;
29940;SDS011;16801;53.562;10.038;2022-09-09T08:21:13;4.18;;;2.38;;
29940;SDS011;16801;53.562;10.038;2022-09-09T08:24:37;2.65;;;1.75;;
29940;SDS011;16801;53.562;10.038;2022-09-09T08:27:58;1.70;;;1.60;;
29940;SDS011;16801;53.562;10.038;2022-09-09T08:31:22;5.60;;;1.85;;
29940;SDS011;16801;53.562;10.038;2022-09-09T08:34:44;3.42;;;1.63;;
29940;SDS011;16801;53.562;10.038;2022-09-09T08:38:09;1.58;;;1.48;;
29940;SDS011;16801;53.562;10.038;2022-09-09T08:41:36;2.58;;;2.38;;
29940;SDS011;16801;53.562;10.038;2022-09-09T08:45:19;1.92;;;1.42;;
29940;SDS011;16801;53.562;10.038;2022-09-09T08:48:52;1.40;;;1.30;;
29940;SDS011;16801;53.562;10.038;2022-09-09T08:52:19;3.75;;;2.20;;
29940;SDS011;16801;53.562;10.038;2022-09-09T08:55:45;1.67;;;1.58;;
29940;SDS011;16801;53.562;10.038;2022-09-09T08:59:09;7.20;;;2.20;;
29940;SDS011;16801;53.562;10.038;2022-09-09T09:02:38;1.98;;;1.88;;
29940;SDS011;16801;53.562;10.038;2022-09-09T09:06:09;2.15;;;1.70;;
29940;SDS011;16801;53.562;10.038;2022-09-09T09:09:43;4.28;;;1.42;;
29940;SDS011;16801;53.562;10.038;2022-09-09T09:13:12;1.73;;;1.63;;
29940;SDS011;16801;53.562;10.038;2022-09-09T09:16:38;1.30;;;1.20;;
29940;SDS011;16801;53.562;10.038;2022-09-09T09:20:05;1.25;;;1.20;;
29940;SDS011;16801;53.562;10.038;2022-09-09T09:23:35;1.05;;;0.82;;
29940;SDS011;16801;53.562;10.038;2022-09-09T09:27:07;2.42;;;0.88;;
29940;SDS011;16801;53.562;10.038;2022-09-09T09:30:36;2.80;;;1.90;;
29940;SDS011;16801;53.562;10.038;2022-09-09T09:34:02;0.93;;;0.85;;
29940;SDS011;16801;53.562;10.038;2022-09-09T09:37:26;2.83;;;1.23;;
29940;SDS011;16801;53.562;10.038;2022-09-09T09:40:53;1.58;;;1.00;;
29940;SDS011;16801;53.562;10.038;2022-09-09T09:44:24;2.05;;;1.00;;
29940;SDS011;16801;53.562;10.038;2022-09-09T09:47:57;1.80;;;1.30;;
29940;SDS011;16801;53.562;10.038;2022-09-09T09:51:19;3.03;;;1.58;;
29940;SDS011;16801;53.562;10.038;2022-09-09T09:54:44;2.90;;;1.77;;
29940;SDS011;16801;53.562;10.038;2022-09-09T09:58:06;5.68;;;2.10;;
29940;SDS011;16801;53.562;10.038;2022-09-09T10:01:36;1.40;;;1.15;;
29940;SDS011;16801;53.562;10.038;2022-09-09T10:05:03;1.38;;;0.77;;
29940;SDS011;16801;53.562;10.038;2022-09-09T10:08:28;1.80;;;0.70;;
29940;SDS011;16801;53.562;10.038;2022-09-09T10:11:50;2.85;;;1.65;;
29940;SDS011;16801;53.562;10.038;2022-09-09T10:15:24;2.28;;;2.05;;
29940;SDS011;16801;53.562;10.038;2022-09-09T10:18:57;2.75;;;1.70;;
29940;SDS011;16801;53.562;10.038;2022-09-09T10:22:23;1.63;;;1.52;;
29940;SDS011;16801;53.562;10.038;2022-09-09T10:25:59;1.63;;;1.15;;
29940;SDS011;16801;53.562;10.038;2022-09-09T10:29:34;1.48;;;1.20;;
29940;SDS011;16801;53.562;10.038;2022-09-09T10:33:04;0.60;;;0.60;;
29940;SDS011;16801;53.562;10.038;2022-09-09T10:36:30;2.97;;;1.33;;
29940;SDS011;16801;53.562;10.038;2022-09-09T10:39:50;0.73;;;0.73;;
29940;SDS011;16801;53.562;10.038;2022-09-09T10:43:23;0.65;;;0.65;;
29940;SDS011;16801;53.562;10.038;2022-09-09T10:50:55;1.50;;;1.13;;
29940;SDS011;16801;53.562;10.038;2022-09-09T10:54:30;1.38;;;1.27;;
29940;SDS011;16801;53.562;10.038;2022-09-09T10:57:59;1.42;;;1.33;;
29940;SDS011;16801;53.562;10.038;2022-09-09T11:01:24;0.68;;;0.65;;
29940;SDS011;16801;53.562;10.038;2022-09-09T11:04:50;1.95;;;0.80;;
29940;SDS011;16801;53.562;10.038;2022-09-09T11:08:18;1.10;;;1.00;;
29940;SDS011;16801;53.562;10.038;2022-09-09T11:11:42;1.30;;;1.10;;
29940;SDS011;16801;53.562;10.038;2022-09-09T11:15:12;1.50;;;1.40;;
29940;SDS011;16801;53.562;10.038;2022-09-09T11:18:38;1.27;;;0.70;;
29940;SDS011;16801;53.562;10.038;2022-09-09T11:22:02;1.85;;;0.85;;
29940;SDS011;16801;53.562;10.038;2022-09-09T11:25:30;2.00;;;0.80;;
29940;SDS011;16801;53.562;10.038;2022-09-09T11:29:00;1.10;;;1.05;;
29940;SDS011;16801;53.562;10.038;2022-09-09T11:32:53;2.05;;;1.63;;
29940;SDS011;16801;53.562;10.038;2022-09-09T11:36:38;1.02;;;0.50;;
29940;SDS011;16801;53.562;10.038;2022-09-09T11:40:16;1.83;;;1.73;;
29940;SDS011;16801;53.562;10.038;2022-09-09T11:43:44;1.05;;;0.80;;
29940;SDS011;16801;53.562;10.038;2022-09-09T11:47:15;0.70;;;0.70;;
29940;SDS011;16801;53.562;10.038;2022-09-09T11:50:41;0.68;;;0.60;;
29940;SDS011;16801;53.562;10.038;2022-09-09T11:54:03;1.50;;;0.90;;
29940;SDS011;16801;53.562;10.038;2022-09-09T11:57:48;1.67;;;0.82;;
29940;SDS011;16801;53.562;10.038;2022-09-09T12:01:27;2.38;;;1.02;;
29940;SDS011;16801;53.562;10.038;2022-09-09T12:04:54;1.58;;;1.20;;
29940;SDS011;16801;53.562;10.038;2022-09-09T12:08:21;2.42;;;0.90;;
29940;SDS011;16801;53.562;10.038;2022-09-09T12:11:48;1.73;;;0.55;;
29940;SDS011;16801;53.562;10.038;2022-09-09T12:15:20;0.60;;;0.60;;
29940;SDS011;16801;53.562;10.038;2022-09-09T12:18:49;0.80;;;0.50;;
29940;SDS011;16801;53.562;10.038;2022-09-09T12:22:12;0.90;;;0.73;;
29940;SDS011;16801;53.562;10.038;2022-09-09T12:25:46;0.60;;;0.55;;
29940;SDS011;16801;53.562;10.038;2022-09-09T12:29:21;1.83;;;1.45;;
29940;SDS011;16801;53.562;10.038;2022-09-09T12:32:58;0.70;;;0.70;;
29940;SDS011;16801;53.562;10.038;2022-09-09T12:36:23;1.80;;;0.80;;
29940;SDS011;16801;53.562;10.038;2022-09-09T12:39:51;6.78;;;1.25;;
29940;SDS011;16801;53.562;10.038;2022-09-09T12:43:17;2.60;;;1.35;;
29940;SDS011;16801;53.562;10.038;2022-09-09T12:46:39;1.05;;;0.70;;
29940;SDS011;16801;53.562;10.038;2022-09-09T12:50:02;1.75;;;0.90;;
29940;SDS011;16801;53.562;10.038;2022-09-09T12:53:26;0.73;;;0.70;;
29940;SDS011;16801;53.562;10.038;2022-09-09T12:56:50;2.15;;;0.40;;
29940;SDS011;16801;53.562;10.038;2022-09-09T13:00:12;0.90;;;0.90;;
29940;SDS011;16801;53.562;10.038;2022-09-09T13:03:41;3.95;;;1.73;;
29940;SDS011;16801;53.562;10.038;2022-09-09T13:07:06;2.10;;;1.90;;
29940;SDS011;16801;53.562;10.038;2022-09-09T13:10:31;2.42;;;1.20;;
29940;SDS011;16801;53.562;10.038;2022-09-09T13:13:58;2.15;;;1.70;;
29940;SDS011;16801;53.562;10.038;2022-09-09T13:17:21;0.93;;;0.93;;
29940;SDS011;16801;53.562;10.038;2022-09-09T13:20:45;2.95;;;1.02;;
29940;SDS011;16801;53.562;10.038;2022-09-09T13:24:21;1.45;;;0.85;;
29940;SDS011;16801;53.562;10.038;2022-09-09T13:27:56;4.75;;;0.82;;
29940;SDS011;16801;53.562;10.038;2022-09-09T13:31:20;1.25;;;1.25;;
29940;SDS011;16801;53.562;10.038;2022-09-09T13:34:50;2.45;;;1.27;;
29940;SDS011;16801;53.562;10.038;2022-09-09T13:38:13;3.05;;;1.65;;
29940;SDS011;16801;53.562;10.038;2022-09-09T13:41:35;2.25;;;2.08;;
29940;SDS011;16801;53.562;10.038;2022-09-09T13:45:05;2.03;;;1.83;;
29940;SDS011;16801;53.562;10.038;2022-09-09T13:48:35;2.47;;;2.15;;
29940;SDS011;16801;53.562;10.038;2022-09-09T13:52:03;1.27;;;1.17;;
29940;SDS011;16801;53.562;10.038;2022-09-09T13:55:27;1.52;;;1.40;;
29940;SDS011;16801;53.562;10.038;2022-09-09T13:58:49;2.25;;;1.33;;
29940;SDS011;16801;53.562;10.038;2022-09-09T14:02:12;2.05;;;1.35;;
29940;SDS011;16801;53.562;10.038;2022-09-09T14:05:33;4.53;;;1.83;;
29940;SDS011;16801;53.562;10.038;2022-09-09T14:08:54;2.80;;;1.98;;
29940;SDS011;16801;53.562;10.038;2022-09-09T14:12:16;3.33;;;1.60;;
29940;SDS011;16801;53.562;10.038;2022-09-09T14:15:37;2.65;;;1.58;;
29940;SDS011;16801;53.562;10.038;2022-09-09T14:18:59;1.98;;;1.30;;
29940;SDS011;16801;53.562;10.038;2022-09-09T14:22:21;6.07;;;2.30;;
29940;SDS011;16801;53.562;10.038;2022-09-09T14:25:42;2.22;;;2.00;;
29940;SDS011;16801;53.562;10.038;2022-09-09T14:29:04;1.83;;;1.30;;
29940;SDS011;16801;53.562;10.038;2022-09-09T14:32:25;1.40;;;1.30;;
29940;SDS011;16801;53.562;10.038;2022-09-09T14:35:47;1.52;;;1.42;;
29940;SDS011;16801;53.562;10.038;2022-09-09T14:39:15;1.67;;;1.38;;
29940;SDS011;16801;53.562;10.038;2022-09-09T14:42:36;22.63;;;17.10;;
29940;SDS011;16801;53.562;10.038;2022-09-09T14:45:57;9.95;;;6.90;;
29940;SDS011;16801;53.562;10.038;2022-09-09T14:49:18;2.80;;;2.45;;
29940;SDS011;16801;53.562;10.038;2022-09-09T14:52:41;5.57;;;3.88;;
29940;SDS011;16801;53.562;10.038;2022-09-09T14:56:06;3.42;;;2.55;;
29940;SDS011;16801;53.562;10.038;2022-09-09T14:59:28;2.13;;;1.92;;
29940;SDS011;16801;53.562;10.038;2022-09-09T15:02:51;4.28;;;3.33;;
29940;SDS011;16801;53.562;10.038;2022-09-09T15:06:13;5.53;;;5.00;;
29940;SDS011;16801;53.562;10.038;2022-09-09T15:09:36;1.85;;;1.75;;
29940;SDS011;16801;53.562;10.038;2022-09-09T15:12:56;11.15;;;9.30;;
29940;SDS011;16801;53.562;10.038;2022-09-09T15:16:18;4.63;;;2.67;;
29940;SDS011;16801;53.562;10.038;2022-09-09T15:19:39;2.53;;;2.33;;
29940;SDS011;16801;53.562;10.038;2022-09-09T15:23:01;6.35;;;2.92;;
29940;SDS011;16801;53.562;10.038;2022-09-09T15:26:23;6.90;;;4.22;;
29940;SDS011;16801;53.562;10.038;2022-09-09T15:29:45;2.95;;;2.67;;
29940;SDS011;16801;53.562;10.038;2022-09-09T15:33:07;2.28;;;1.33;;
29940;SDS011;16801;53.562;10.038;2022-09-09T15:36:30;3.88;;;1.73;;
29940;SDS011;16801;53.562;10.038;2022-09-09T15:39:52;1.60;;;1.48;;
29940;SDS011;16801;53.562;10.038;2022-09-09T15:43:14;3.85;;;2.45;;
29940;SDS011;16801;53.562;10.038;2022-09-09T15:46:35;1.75;;;1.65;;
29940;SDS011;16801;53.562;10.038;2022-09-09T15:49:58;2.45;;;1.10;;
29940;SDS011;16801;53.562;10.038;2022-09-09T15:53:19;1.15;;;1.05;;
29940;SDS011;16801;53.562;10.038;2022-09-09T15:56:40;0.60;;;0.60;;
29940;SDS011;16801;53.562;10.038;2022-09-09T16:00:03;1.35;;;0.85;;
29940;SDS011;16801;53.562;10.038;2022-09-09T16:03:25;1.13;;;1.05;;
29940;SDS011;16801;53.562;10.038;2022-09-09T16:06:46;1.30;;;0.75;;
29940;SDS011;16801;53.562;10.038;2022-09-09T16:10:07;2.85;;;0.93;;
29940;SDS011;16801;53.562;10.038;2022-09-09T16:13:32;5.70;;;4.47;;
29940;SDS011;16801;53.562;10.038;2022-09-09T16:16:55;3.30;;;3.00;;
29940;SDS011;16801;53.562;10.038;2022-09-09T16:20:16;5.75;;;3.80;;
29940;SDS011;16801;53.562;10.038;2022-09-09T16:23:38;1.38;;;1.00;;
29940;SDS011;16801;53.562;10.038;2022-09-09T16:26:59;6.93;;;6.22;;
29940;SDS011;16801;53.562;10.038;2022-09-09T16:30:22;1.10;;;0.98;;
29940;SDS011;16801;53.562;10.038;2022-09-09T16:33:44;2.08;;;1.58;;
29940;SDS011;16801;53.562;10.038;2022-09-09T16:37:07;17.27;;;15.18;;
29940;SDS011;16801;53.562;10.038;2022-09-09T16:40:28;12.23;;;5.78;;
29940;SDS011;16801;53.562;10.038;2022-09-09T16:43:51;3.47;;;2.47;;
29940;SDS011;16801;53.562;10.038;2022-09-09T16:47:13;3.03;;;1.75;;
29940;SDS011;16801;53.562;10.038;2022-09-09T16:50:34;1.70;;;0.88;;
29940;SDS011;16801;53.562;10.038;2022-09-09T16:53:57;1.30;;;1.05;;
29940;SDS011;16801;53.562;10.038;2022-09-09T16:57:19;1.20;;;1.10;;
29940;SDS011;16801;53.562;10.038;2022-09-09T17:00:40;2.22;;;1.02;;
29940;SDS011;16801;53.562;10.038;2022-09-09T17:04:02;3.75;;;2.08;;
29940;SDS011;16801;53.562;10.038;2022-09-09T17:07:27;6.45;;;5.07;;
29940;SDS011;16801;53.562;10.038;2022-09-09T17:10:47;6.28;;;4.30;;
29940;SDS011;16801;53.562;10.038;2022-09-09T17:14:11;6.93;;;6.03;;
29940;SDS011;16801;53.562;10.038;2022-09-09T17:17:35;8.45;;;4.75;;
29940;SDS011;16801;53.562;10.038;2022-09-09T17:20:56;9.27;;;6.72;;
29940;SDS011;16801;53.562;10.038;2022-09-09T17:24:24;10.02;;;6.68;;
29940;SDS011;16801;53.562;10.038;2022-09-09T17:27:46;4.97;;;4.43;;
29940;SDS011;16801;53.562;10.038;2022-09-09T17:31:08;2.42;;;2.22;;
29940;SDS011;16801;53.562;10.038;2022-09-09T17:34:30;1.77;;;1.50;;
29940;SDS011;16801;53.562;10.038;2022-09-09T17:37:52;2.95;;;1.50;;
29940;SDS011;16801;53.562;10.038;2022-09-09T17:41:15;4.07;;;3.28;;
29940;SDS011;16801;53.562;10.038;2022-09-09T17:44:37;10.60;;;7.22;;
29940;SDS011;16801;53.562;10.038;2022-09-09T17:47:59;11.88;;;8.93;;
29940;SDS011;16801;53.562;10.038;2022-09-09T17:51:20;5.20;;;2.60;;
29940;SDS011;16801;53.562;10.038;2022-09-09T17:54:44;5.47;;;4.60;;
29940;SDS011;16801;53.562;10.038;2022-09-09T17:58:07;3.63;;;3.28;;
29940;SDS011;16801;53.562;10.038;2022-09-09T18:01:29;7.00;;;3.40;;
29940;SDS011;16801;53.562;10.038;2022-09-09T18:04:51;5.00;;;3.67;;
29940;SDS011;16801;53.562;10.038;2022-09-09T18:08:12;3.70;;;3.20;;
29940;SDS011;16801;53.562;10.038;2022-09-09T18:11:34;7.93;;;5.38;;
29940;SDS011;16801;53.562;10.038;2022-09-09T18:14:58;9.40;;;6.90;;
29940;SDS011;16801;53.562;10.038;2022-09-09T18:18:19;10.63;;;8.15;;
29940;SDS011;16801;53.562;10.038;2022-09-09T18:21:41;3.17;;;2.60;;
29940;SDS011;16801;53.562;10.038;2022-09-09T18:25:03;5.72;;;4.68;;
29940;SDS011;16801;53.562;10.038;2022-09-09T18:28:25;11.23;;;7.72;;
29940;SDS011;16801;53.562;10.038;2022-09-09T18:31:47;13.63;;;10.73;;
29940;SDS011;16801;53.562;10.038;2022-09-09T18:35:08;9.82;;;6.03;;
29940;SDS011;16801;53.562;10.038;2022-09-09T18:38:31;9.52;;;4.72;;
29940;SDS011;16801;53.562;10.038;2022-09-09T18:41:53;9.75;;;7.63;;
29940;SDS011;16801;53.562;10.038;2022-09-09T18:45:17;5.28;;;4.43;;
29940;SDS011;16801;53.562;10.038;2022-09-09T18:48:39;7.55;;;5.45;;
29940;SDS011;16801;53.562;10.038;2022-09-09T18:52:01;4.55;;;3.42;;
29940;SDS011;16801;53.562;10.038;2022-09-09T18:55:22;3.35;;;2.58;;
29940;SDS011;16801;53.562;10.038;2022-09-09T18:58:43;4.07;;;2.53;;
29940;SDS011;16801;53.562;10.038;2022-09-09T19:02:06;3.03;;;1.80;;
29940;SDS011;16801;53.562;10.038;2022-09-09T19:05:32;2.33;;;2.10;;
29940;SDS011;16801;53.562;10.038;2022-09-09T19:08:54;12.52;;;8.70;;
29940;SDS011;16801;53.562;10.038;2022-09-09T19:12:15;21.52;;;13.35;;
29940;SDS011;16801;53.562;10.038;2022-09-09T19:15:35;15.95;;;10.02;;
29940;SDS011;16801;53.562;10.038;2022-09-09T19:18:58;12.13;;;9.95;;
29940;SDS011;16801;53.562;10.038;2022-09-09T19:22:22;23.73;;;16.60;;
29940;SDS011;16801;53.562;10.038;2022-09-09T19:25:44;7.70;;;5.93;;
29940;SDS011;16801;53.562;10.038;2022-09-09T19:29:06;13.20;;;7.63;;
29940;SDS011;16801;53.562;10.038;2022-09-09T19:32:28;5.25;;;4.70;;
29940;SDS011;16801;53.562;10.038;2022-09-09T19:35:55;5.68;;;4.38;;
29940;SDS011;16801;53.562;10.038;2022-09-09T19:39:18;3.20;;;2.90;;
29940;SDS011;16801;53.562;10.038;2022-09-09T19:42:40;3.67;;;3.38;;
29940;SDS011;16801;53.562;10.038;2022-09-09T19:46:02;3.40;;;2.75;;
29940;SDS011;16801;53.562;10.038;2022-09-09T19:49:26;3.72;;;2.95;;
29940;SDS011;16801;53.562;10.038;2022-09-09T19:52:47;2.80;;;2.60;;
29940;SDS011;16801;53.562;10.038;2022-09-09T19:56:09;5.35;;;3.13;;
29940;SDS011;16801;53.562;10.038;2022-09-09T19:59:31;2.78;;;2.58;;
29940;SDS011;16801;53.562;10.038;2022-09-09T20:02:52;4.10;;;3.10;;
29940;SDS011;16801;53.562;10.038;2022-09-09T20:06:14;3.17;;;2.88;;
29940;SDS011;16801;53.562;10.038;2022-09-09T20:09:36;3.00;;;2.38;;
29940;SDS011;16801;53.562;10.038;2022-09-09T20:13:03;3.03;;;2.38;;
29940;SDS011;16801;53.562;10.038;2022-09-09T20:16:25;2.17;;;1.98;;